createdAt,value
2022-09-10T00:04:11.378Z,12.82
2022-09-10T00:09:17.602Z,12.83
2022-09-10T00:14:24.428Z,12.90
2022-09-10T00:19:31.638Z,12.92
2022-09-10T00:24:38.742Z,12.89
2022-09-10T00:29:53.102Z,12.94
2022-09-10T00:35:01.222Z,12.94
2022-09-10T00:40:09.232Z,12.90
2022-09-10T00:45:20.577Z,12.85
2022-09-10T00:50:30.391Z,12.79
2022-09-10T00:55:39.048Z,12.79
2022-09-10T01:00:45.894Z,12.72
2022-09-10T01:05:52.390Z,12.68
2022-09-10T01:11:13.385Z,12.73
2022-09-10T01:16:28.625Z,12.72
2022-09-10T01:21:40.902Z,12.68
2022-09-10T01:27:21.935Z,12.64
2022-09-10T01:32:29.994Z,12.63
2022-09-10T01:37:40.833Z,12.63
2022-09-10T01:42:49.690Z,12.62
2022-09-10T01:48:35.424Z,12.61
2022-09-10T01:54:00.191Z,12.62
2022-09-10T01:59:18.979Z,12.59
2022-09-10T02:04:26.186Z,12.54
2022-09-10T02:09:32.760Z,12.52
2022-09-10T02:14:39.599Z,12.49
2022-09-10T02:20:02.258Z,12.45
2022-09-10T02:25:11.157Z,12.45
2022-09-10T02:35:22.722Z,12.49
2022-09-10T02:40:31.429Z,12.50
2022-09-10T02:45:41.221Z,12.59
2022-09-10T02:50:48.514Z,12.60
2022-09-10T02:55:54.811Z,12.52
2022-09-10T03:01:09.450Z,12.50
2022-09-10T03:06:15.977Z,12.55
2022-09-10T03:11:24.038Z,12.55
2022-09-10T03:16:31.315Z,12.56
2022-09-10T03:21:37.075Z,12.57
2022-09-10T03:26:44.456Z,12.59
2022-09-10T03:31:51.799Z,12.60
2022-09-10T03:36:58.841Z,12.54
2022-09-10T03:42:05.421Z,12.40
2022-09-10T03:47:12.973Z,12.30
2022-09-10T03:52:19.353Z,12.30
2022-09-10T03:57:26.270Z,12.28
2022-09-10T04:02:32.842Z,12.24
2022-09-10T04:07:39.313Z,12.27
2022-09-10T04:12:45.728Z,12.30
2022-09-10T04:17:54.987Z,12.34
2022-09-10T04:23:03.680Z,12.36
2022-09-10T04:28:11.358Z,12.41
2022-09-10T04:33:17.692Z,12.49
2022-09-10T04:38:24.197Z,12.54
2022-09-10T04:43:31.421Z,12.52
2022-09-10T04:48:39.217Z,12.55
2022-09-10T04:53:46.697Z,12.58
2022-09-10T04:58:53.018Z,12.62
2022-09-10T05:03:59.285Z,12.64
2022-09-10T05:09:05.394Z,12.65
2022-09-10T05:14:12.383Z,12.66
2022-09-10T05:19:18.988Z,12.67
2022-09-10T05:24:28.557Z,12.60
2022-09-10T05:29:34.701Z,12.51
2022-09-10T05:34:41.222Z,12.53
2022-09-10T05:39:48.513Z,12.60
2022-09-10T05:44:54.492Z,12.62
2022-09-10T05:50:00.288Z,12.66
2022-09-10T05:55:09.197Z,12.68
2022-09-10T06:00:16.031Z,12.70
2022-09-10T06:05:25.169Z,12.78
2022-09-10T06:10:32.633Z,12.81
2022-09-10T06:15:39.137Z,12.84
2022-09-10T06:20:48.133Z,12.90
2022-09-10T06:26:04.297Z,12.97
2022-09-10T06:31:17.123Z,13.04
2022-09-10T06:36:23.946Z,13.05
2022-09-10T06:41:31.066Z,13.05
2022-09-10T06:52:14.328Z,13.15
2022-09-10T06:57:21.007Z,13.24
2022-09-10T07:02:27.516Z,13.30
2022-09-10T07:07:33.737Z,13.35
2022-09-10T07:12:42.415Z,13.30
2022-09-10T07:17:49.157Z,13.30
2022-09-10T07:22:56.182Z,13.32
2022-09-10T07:28:04.373Z,13.31
2022-09-10T07:33:12.293Z,13.30
2022-09-10T07:38:21.283Z,13.30
2022-09-10T07:43:28.469Z,13.34
2022-09-10T07:48:34.993Z,13.36
2022-09-10T07:53:49.993Z,13.36
2022-09-10T07:58:57.559Z,13.41
2022-09-10T08:04:07.771Z,13.49
2022-09-10T08:09:16.248Z,13.48
2022-09-10T08:14:27.971Z,13.43
2022-09-10T08:19:34.635Z,13.47
2022-09-10T08:24:41.053Z,13.55
2022-09-10T08:29:47.143Z,13.53
2022-09-10T08:34:53.489Z,13.52
2022-09-10T08:39:59.770Z,13.62
2022-09-10T08:45:12.080Z,13.72
2022-09-10T08:50:25.335Z,13.78
2022-09-10T08:55:34.485Z,13.86
2022-09-10T09:00:44.729Z,13.91
2022-09-10T09:05:58.384Z,14.02
2022-09-10T09:11:16.449Z,14.01
2022-09-10T09:16:47.811Z,13.98
2022-09-10T09:21:56.197Z,14.07
2022-09-10T09:27:11.302Z,14.12
2022-09-10T09:32:20.748Z,14.09
2022-09-10T09:37:30.421Z,14.09
2022-09-10T09:42:45.561Z,14.16
2022-09-10T09:47:54.497Z,14.18
2022-09-10T09:53:00.887Z,14.27
2022-09-10T09:58:38.917Z,14.38
2022-09-10T10:04:00.197Z,14.48
2022-09-10T10:09:20.251Z,14.55
2022-09-10T10:14:36.347Z,14.55
2022-09-10T10:19:44.030Z,14.54
2022-09-10T10:24:52.644Z,14.49
2022-09-10T10:30:02.030Z,14.48
2022-09-10T10:35:36.278Z,14.52
2022-09-10T10:40:48.769Z,14.58
2022-09-10T10:46:03.294Z,14.63
2022-09-10T10:51:18.072Z,14.60
2022-09-10T10:56:29.943Z,14.52
2022-09-10T11:01:41.529Z,14.62
2022-09-10T11:06:52.175Z,14.65
2022-09-10T11:12:01.419Z,14.66
2022-09-10T11:17:12.334Z,14.64
2022-09-10T11:22:24.014Z,14.65
2022-09-10T11:27:35.757Z,14.65
2022-09-10T11:32:46.543Z,14.69
2022-09-10T11:38:00.951Z,14.73
2022-09-10T11:43:11.287Z,14.61
2022-09-10T11:48:27.561Z,14.49
2022-09-10T11:53:34.244Z,14.52
2022-09-10T11:58:52.867Z,14.61
2022-09-10T12:04:29.656Z,14.67
2022-09-10T12:09:44.849Z,14.55
2022-09-10T12:14:51.049Z,14.49
2022-09-10T12:19:59.492Z,14.51
2022-09-10T12:25:22.969Z,14.50
2022-09-10T12:31:04.338Z,14.48
2022-09-10T12:36:10.731Z,14.39
2022-09-10T12:41:59.851Z,14.32
2022-09-10T12:47:41.123Z,14.25
2022-09-10T12:53:02.822Z,14.18
2022-09-10T12:58:23.450Z,14.08
2022-09-10T13:03:31.446Z,14.09
2022-09-10T13:08:42.647Z,14.25
2022-09-10T13:13:56.402Z,14.42
2022-09-10T13:19:43.011Z,14.47
2022-09-10T13:25:24.298Z,14.59
2022-09-10T13:30:31.383Z,14.71
2022-09-10T13:36:19.681Z,14.76
2022-09-10T13:41:58.845Z,14.66
2022-09-10T13:47:13.858Z,14.50
2022-09-10T13:52:22.254Z,14.50
2022-09-10T13:57:33.626Z,14.53
2022-09-10T14:02:48.194Z,14.52
2022-09-10T14:07:56.963Z,14.56
2022-09-10T14:13:03.926Z,14.55
2022-09-10T14:18:12.291Z,14.52
2022-09-10T14:23:19.010Z,14.55
2022-09-10T14:28:28.769Z,14.57
2022-09-10T14:33:37.060Z,14.55
2022-09-10T14:38:45.312Z,14.65
2022-09-10T14:44:12.202Z,14.65
2022-09-10T14:49:25.306Z,14.55
2022-09-10T14:54:33.786Z,14.43
2022-09-10T14:59:41.948Z,14.34
2022-09-10T15:04:48.189Z,14.22
2022-09-10T15:09:55.033Z,14.15
2022-09-10T15:15:00.711Z,14.08
2022-09-10T15:20:09.170Z,14.03
2022-09-10T15:25:38.041Z,13.98
2022-09-10T15:30:44.462Z,13.92
2022-09-10T15:35:50.350Z,13.90
2022-09-10T15:41:09.319Z,13.88
2022-09-10T15:46:17.084Z,13.85
2022-09-10T15:51:24.252Z,13.83
2022-09-10T15:56:30.620Z,13.77
2022-09-10T16:01:41.262Z,13.70
2022-09-10T16:06:47.268Z,13.63
2022-09-10T16:11:53.131Z,13.60
2022-09-10T16:17:00.913Z,13.58
2022-09-10T16:22:08.064Z,13.54
2022-09-10T16:27:14.178Z,13.53
2022-09-10T16:32:20.010Z,13.51
2022-09-10T16:37:26.291Z,13.47
2022-09-10T16:42:32.143Z,13.37
2022-09-10T16:47:38.159Z,13.26
2022-09-10T16:52:44.381Z,13.20
2022-09-10T16:57:50.199Z,13.21
2022-09-10T17:02:59.186Z,13.22
2022-09-10T17:08:06.384Z,13.25
2022-09-10T17:13:12.158Z,13.28
2022-09-10T17:18:18.345Z,13.33
2022-09-10T17:23:25.816Z,13.31
2022-09-10T17:28:33.194Z,13.28
2022-09-10T17:33:39.153Z,13.28
2022-09-10T17:38:46.089Z,13.28
2022-09-10T17:43:52.865Z,13.26
2022-09-10T17:49:02.631Z,13.27
2022-09-10T17:54:08.845Z,13.30
2022-09-10T17:59:15.487Z,13.30
2022-09-10T18:04:22.017Z,13.28
2022-09-10T18:09:28.255Z,13.27
2022-09-10T18:14:34.655Z,13.30
2022-09-10T18:19:41.340Z,13.34
2022-09-10T18:24:48.104Z,13.33
2022-09-10T18:29:53.913Z,13.33
2022-09-10T18:35:00.043Z,13.36
2022-09-10T18:40:07.968Z,13.41
2022-09-10T18:45:13.915Z,13.35
2022-09-10T18:50:19.846Z,13.28
2022-09-10T18:55:25.777Z,13.28
2022-09-10T19:00:32.693Z,13.31
2022-09-10T19:05:40.135Z,13.26
2022-09-10T19:10:46.095Z,13.18
2022-09-10T19:15:57.379Z,13.14
2022-09-10T19:21:05.861Z,13.10
2022-09-10T19:26:12.899Z,13.08
2022-09-10T19:31:20.735Z,13.10
2022-09-10T19:36:27.859Z,13.14
2022-09-10T19:41:35.350Z,13.18
2022-09-10T19:46:43.610Z,13.14
2022-09-10T19:51:50.223Z,13.07
2022-09-10T19:56:56.354Z,13.14
2022-09-10T20:02:02.387Z,13.16
2022-09-10T20:07:08.488Z,13.16
2022-09-10T20:12:16.278Z,13.19
2022-09-10T20:17:22.502Z,13.24
2022-09-10T20:22:28.386Z,13.24
2022-09-10T20:27:34.649Z,13.17
2022-09-10T20:32:41.053Z,13.14
2022-09-10T20:37:51.614Z,13.06
2022-09-10T20:42:57.638Z,12.98
2022-09-10T20:48:03.868Z,12.89
2022-09-10T20:53:10.100Z,12.78
2022-09-10T20:58:16.638Z,12.72
2022-09-10T21:03:23.297Z,12.66
2022-09-10T21:08:31.481Z,12.56
2022-09-10T21:13:42.697Z,12.59
2022-09-10T21:18:54.158Z,12.62
2022-09-10T21:24:03.215Z,12.65
2022-09-10T21:29:12.248Z,12.66
2022-09-10T21:34:19.245Z,12.69
2022-09-10T21:39:26.359Z,12.70
2022-09-10T21:44:32.309Z,12.67
2022-09-10T21:49:39.303Z,12.63
2022-09-10T21:54:45.483Z,12.62
2022-09-10T21:59:52.086Z,12.62
2022-09-10T22:04:58.265Z,12.60
2022-09-10T22:10:06.811Z,12.57
2022-09-10T22:15:14.619Z,12.55
2022-09-10T22:20:20.791Z,12.55
2022-09-10T22:25:26.792Z,12.52
2022-09-10T22:30:32.496Z,12.50
2022-09-10T22:35:39.138Z,12.50
2022-09-10T22:40:45.388Z,12.51
2022-09-10T22:45:51.374Z,12.49
2022-09-10T22:50:59.205Z,12.44
2022-09-10T22:56:06.164Z,12.42
2022-09-10T23:01:14.355Z,12.40
2022-09-10T23:06:22.691Z,12.36
2022-09-10T23:11:30.734Z,12.35
2022-09-10T23:16:38.923Z,12.30
2022-09-10T23:21:48.829Z,12.26
2022-09-10T23:26:55.417Z,12.24
2022-09-10T23:32:02.241Z,12.26
2022-09-10T23:37:10.015Z,12.28
2022-09-10T23:42:16.758Z,12.28
2022-09-10T23:47:22.910Z,12.26
2022-09-10T23:52:29.169Z,12.24
2022-09-10T23:57:35.263Z,12.27
